EDT,Max TemperatureF,Mean TemperatureF,Min TemperatureF,Max Dew PointF,MeanDew PointF,Min DewpointF,Max Humidity, Mean Humidity, Min Humidity, Max Sea Level PressureIn, Mean Sea Level PressureIn, Min Sea Level PressureIn, Max VisibilityMiles, Mean VisibilityMiles, Min VisibilityMiles, Max Wind SpeedMPH, Mean Wind SpeedMPH, Max Gust SpeedMPH,PrecipitationIn, CloudCover, Events, WindDirDegrees
2013-6-1,90,73,57,64,59,53,90,65,31,29.96,29.89,29.83,10,9,5,12,2,22,0.00,1,,237
2013-6-2,89,74,62,72,63,59,94,77,43,29.87,29.76,29.65,10,8,0,21,3,47,0.66,5,Rain-Thunderstorm,196
2013-6-3,75,63,48,59,54,45,94,76,44,29.84,29.79,29.75,10,7,1,13,2,24,0.00,3,Rain,275
2013-6-4,62,51,41,45,40,37,93,66,44,30.12,29.96,29.86,10,10,10,13,5,21,0.00,6,,282
2013-6-5,69,52,35,44,37,33,93,64,30,30.21,30.17,30.12,10,9,1,9,1,,0.00,0,,302
2013-6-6,72,58,46,49,43,37,86,60,36,30.23,30.16,30.11,10,10,10,10,2,18,0.01,6,Rain,124
2013-6-7,57,52,50,49,47,44,89,79,69,30.11,30.04,29.92,10,8,2,10,4,,0.54,8,Rain,110
2013-6-8,64,58,53,55,52,48,90,81,65,30.03,29.87,29.75,10,9,2,13,4,18,0.31,8,Rain,292
2013-6-9,72,62,48,55,52,46,90,74,45,30.22,30.09,30.03,10,10,2,12,3,,0.03,6,Rain,261
2013-6-10,73,58,42,52,45,39,97,73,33,30.24,30.18,30.00,10,7,0,10,1,,0.00,3,Fog-Rain,208
2013-6-11,62,58,54,54,52,48,94,83,64,29.99,29.75,29.61,10,7,2,14,3,17,0.81,8,Rain,79
2013-6-12,63,57,53,52,51,50,94,80,70,29.85,29.69,29.59,10,10,8,14,4,28,0.01,8,Rain,344
2013-6-13,71,56,43,54,47,41,96,80,42,29.85,29.79,29.71,10,6,0,9,1,,0.01,3,Fog-Rain,179
2013-6-14,75,62,50,54,48,42,94,74,32,29.82,29.73,29.70,10,7,0,12,1,22,0.00,5,Fog,342
2013-6-15,72,55,39,46,41,36,93,61,30,29.95,29.90,29.83,10,10,2,16,3,22,0.00,1,,287
2013-6-16,75,57,42,58,51,38,93,78,39,29.94,29.81,29.72,10,7,1,7,1,21,0.26,6,Rain,237
2013-6-17,73,60,48,59,52,46,96,81,46,29.92,29.81,29.77,10,6,0,13,3,22,0.04,5,Fog-Rain,239
2013-6-18,69,57,45,51,47,42,90,68,42,30.01,29.95,29.91,10,10,10,6,2,,0.00,4,Rain,347
2013-6-19,70,54,39,47,40,37,93,73,33,30.20,30.05,29.98,10,7,0,9,1,,0.00,2,Fog-Rain,348
2013-6-20,75,54,35,50,41,33,93,67,33,30.29,30.24,30.20,10,9,2,9,1,,0.00,1,,266
2013-6-21,80,60,42,53,47,39,90,65,35,30.27,30.24,30.22,10,10,10,9,1,17,0.00,1,,282
2013-6-22,79,64,51,65,57,48,90,79,51,30.25,30.19,30.14,10,8,2,6,1,,0.14,6,Rain,293
2013-6-23,82,72,62,70,64,61,94,86,65,30.14,30.07,30.00,10,5,0,8,1,17,1.21,7,Fog-Rain-Thunderstorm,227
2013-6-24,86,73,62,67,64,60,94,81,51,30.01,29.97,29.90,10,5,0,8,2,,0.01,5,Fog-Rain,259
2013-6-25,86,72,59,67,62,55,94,83,51,29.93,29.85,29.76,10,5,0,10,1,21,0.43,5,Fog-Rain-Thunderstorm,267
2013-6-26,75,70,63,67,64,61,94,87,69,29.84,29.80,29.76,10,4,0,7,0,,0.06,7,Fog-Rain,266
2013-6-27,84,71,60,67,62,57,94,80,51,29.84,29.81,29.75,10,6,0,17,1,22,0.04,5,Fog-Rain,99
2013-6-28,79,68,60,62,58,54,90,77,60,29.78,29.60,29.48,10,10,9,17,7,24,0.13,7,Rain,79
2013-6-29,81,71,62,65,62,59,94,79,50,29.70,29.57,29.51,10,9,0,10,2,21,0.43,6,Fog-Rain-Thunderstorm,169
2013-6-30,82,72,62,68,62,57,94,76,45,29.94,29.81,29.70,10,7,0,13,2,18,0.07,5,Fog-Rain,258